createdAt,value
2023-02-16T00:01:27.268Z,11.40
2023-02-16T00:03:57.380Z,12.15
2023-02-16T00:06:25.943Z,12.00
2023-02-16T00:08:55.778Z,11.27
2023-02-16T00:11:52.379Z,11.75
2023-02-16T00:14:23.677Z,11.38
2023-02-16T00:16:55.173Z,12.32
2023-02-16T00:21:59.429Z,11.80
2023-02-16T00:24:28.828Z,12.05
2023-02-16T00:26:57.977Z,11.93
2023-02-16T00:29:28.719Z,11.75
2023-02-16T00:31:58.129Z,12.82
2023-02-16T00:34:30.607Z,11.02
2023-02-16T00:36:59.954Z,11.65
2023-02-16T00:39:30.191Z,12.32
2023-02-16T00:42:07.421Z,12.13
2023-02-16T00:44:43.094Z,11.80
2023-02-16T00:47:22.847Z,11.77
2023-02-16T00:49:54.046Z,11.75
2023-02-16T00:52:42.927Z,11.55
2023-02-16T00:55:16.863Z,11.90
2023-02-16T00:57:54.255Z,11.23
2023-02-16T01:00:26.787Z,11.43
2023-02-16T01:03:04.450Z,10.55
2023-02-16T01:05:32.184Z,11.15
2023-02-16T01:08:20.176Z,11.32
2023-02-16T01:11:09.922Z,11.30
2023-02-16T01:13:51.677Z,11.43
2023-02-16T01:16:25.745Z,10.73
2023-02-16T01:18:53.968Z,10.82
2023-02-16T01:21:24.107Z,10.82
2023-02-16T01:23:54.716Z,10.57
2023-02-16T01:26:25.482Z,11.13
2023-02-16T01:28:56.068Z,10.77
2023-02-16T01:31:26.255Z,10.93
2023-02-16T01:33:56.274Z,10.73
2023-02-16T01:36:40.261Z,10.65
2023-02-16T01:42:05.416Z,11.07
2023-02-16T01:44:44.653Z,10.80
2023-02-16T01:47:50.916Z,11.13
2023-02-16T01:50:23.028Z,10.85
2023-02-16T01:52:59.796Z,10.43
2023-02-16T01:55:35.026Z,10.50
2023-02-16T01:58:11.835Z,10.43
2023-02-16T02:00:55.612Z,10.23
2023-02-16T02:03:52.221Z,9.90
2023-02-16T02:06:25.216Z,10.00
2023-02-16T02:09:23.182Z,10.10
2023-02-16T02:12:06.644Z,9.70
2023-02-16T02:14:38.554Z,10.13
2023-02-16T02:17:15.170Z,10.15
2023-02-16T02:20:23.819Z,9.07
2023-02-16T02:23:31.044Z,10.48
2023-02-16T02:26:20.240Z,9.93
2023-02-16T02:28:53.767Z,9.73
2023-02-16T02:34:23.263Z,10.05
2023-02-16T02:37:21.794Z,9.95
2023-02-16T02:40:03.274Z,9.20
2023-02-16T02:43:01.635Z,9.85
2023-02-16T02:45:41.388Z,9.85
2023-02-16T02:48:12.179Z,9.35
2023-02-16T02:51:30.876Z,9.02
2023-02-16T02:54:26.983Z,9.20
2023-02-16T02:57:56.343Z,9.50
2023-02-16T03:00:44.244Z,9.35
2023-02-16T03:03:20.998Z,9.27
2023-02-16T03:05:55.409Z,9.48
2023-02-16T03:08:27.945Z,9.52
2023-02-16T03:11:25.924Z,8.80
2023-02-16T03:14:02.389Z,8.70
2023-02-16T03:16:35.909Z,9.05
2023-02-16T03:22:10.739Z,8.60
2023-02-16T03:24:59.932Z,8.52
2023-02-16T03:27:52.784Z,8.75
2023-02-16T03:30:23.385Z,8.10
2023-02-16T03:32:51.715Z,8.80
2023-02-16T03:35:22.552Z,8.85
2023-02-16T03:37:53.311Z,8.27
2023-02-16T03:40:29.118Z,8.63
2023-02-16T03:43:07.156Z,9.10
2023-02-16T03:45:37.275Z,8.38
2023-02-16T03:48:05.325Z,8.73
2023-02-16T03:50:33.990Z,8.27
2023-02-16T03:53:07.443Z,8.98
2023-02-16T03:58:03.218Z,7.85
2023-02-16T04:00:37.522Z,8.27
2023-02-16T04:03:09.191Z,8.20
2023-02-16T04:05:39.267Z,7.90
2023-02-16T04:08:08.274Z,8.63
2023-02-16T04:10:39.242Z,8.07
2023-02-16T04:13:07.277Z,8.95
2023-02-16T04:15:42.534Z,8.60
2023-02-16T04:18:09.840Z,7.97
2023-02-16T04:20:37.300Z,8.02
2023-02-16T04:23:07.734Z,8.23
2023-02-16T04:25:37.600Z,8.35
2023-02-16T04:28:07.285Z,8.45
2023-02-16T04:30:40.179Z,7.85
2023-02-16T04:33:09.980Z,8.70
2023-02-16T04:35:37.666Z,8.40
2023-02-16T04:38:05.120Z,7.80
2023-02-16T04:40:32.567Z,8.20
2023-02-16T04:43:00.152Z,8.07
2023-02-16T04:45:32.816Z,8.02
2023-02-16T04:48:14.470Z,7.85
2023-02-16T04:50:42.561Z,8.00
2023-02-16T04:53:15.703Z,8.07
2023-02-16T04:55:50.200Z,8.10
2023-02-16T04:58:17.872Z,7.65
2023-02-16T05:00:48.357Z,8.23
2023-02-16T05:03:18.981Z,7.78
2023-02-16T05:05:46.659Z,7.85
2023-02-16T05:08:14.266Z,8.25
2023-02-16T05:10:42.626Z,7.93
2023-02-16T05:13:29.798Z,7.70
2023-02-16T05:15:57.284Z,7.95
2023-02-16T05:18:24.575Z,7.97
2023-02-16T05:21:13.269Z,8.02
2023-02-16T05:23:46.853Z,7.72
2023-02-16T05:26:19.192Z,7.35
2023-02-16T05:28:46.768Z,7.55
2023-02-16T05:31:16.810Z,7.75
2023-02-16T05:33:47.348Z,8.13
2023-02-16T05:36:17.323Z,6.82
2023-02-16T05:38:48.420Z,8.00
2023-02-16T05:41:23.547Z,7.97
2023-02-16T05:43:54.073Z,7.40
2023-02-16T05:46:27.095Z,7.20
2023-02-16T05:48:55.232Z,7.70
2023-02-16T05:51:23.508Z,7.43
2023-02-16T05:53:51.171Z,7.78
2023-02-16T05:56:21.417Z,7.25
2023-02-16T05:58:50.476Z,7.10
2023-02-16T06:01:18.214Z,7.60
2023-02-16T06:03:46.000Z,7.50
2023-02-16T06:06:14.321Z,7.78
2023-02-16T06:08:44.488Z,7.28
2023-02-16T06:11:33.105Z,7.75
2023-02-16T06:14:01.796Z,7.20
2023-02-16T06:16:31.054Z,7.07
2023-02-16T06:19:03.433Z,7.40
2023-02-16T06:21:34.504Z,7.70
2023-02-16T06:24:02.564Z,7.32
2023-02-16T06:26:33.753Z,7.35
2023-02-16T06:29:04.845Z,7.22
2023-02-16T06:31:36.881Z,7.40
2023-02-16T06:34:07.964Z,7.10
2023-02-16T06:36:41.342Z,7.30
2023-02-16T06:39:10.288Z,6.68
2023-02-16T06:41:43.300Z,7.07
2023-02-16T06:44:13.612Z,7.53
2023-02-16T06:46:42.959Z,6.63
2023-02-16T06:49:20.317Z,7.72
2023-02-16T06:51:51.428Z,7.57
2023-02-16T06:54:21.828Z,7.47
2023-02-16T06:56:49.378Z,7.10
2023-02-16T06:59:19.251Z,6.68
2023-02-16T07:01:49.260Z,7.35
2023-02-16T07:04:19.767Z,7.03
2023-02-16T07:06:50.519Z,7.28
2023-02-16T07:09:18.395Z,7.22
2023-02-16T07:11:46.372Z,7.35
2023-02-16T07:14:17.595Z,7.32
2023-02-16T07:16:47.819Z,7.43
2023-02-16T07:19:17.415Z,6.78
2023-02-16T07:21:47.437Z,6.93
2023-02-16T07:24:18.695Z,7.25
2023-02-16T07:26:46.355Z,6.95
2023-02-16T07:29:19.295Z,7.13
2023-02-16T07:31:50.883Z,7.13
2023-02-16T07:34:22.965Z,7.25
2023-02-16T07:36:53.390Z,6.47
2023-02-16T07:39:23.833Z,7.47
2023-02-16T07:41:51.657Z,6.93
2023-02-16T07:44:22.475Z,7.15
2023-02-16T07:46:57.962Z,7.00
2023-02-16T07:49:31.138Z,6.80
2023-02-16T07:52:01.843Z,6.40
2023-02-16T07:54:32.667Z,6.68
2023-02-16T07:57:04.538Z,6.43
2023-02-16T07:59:33.665Z,6.60
2023-02-16T08:02:05.026Z,6.47
2023-02-16T08:04:36.037Z,6.60
2023-02-16T08:07:08.490Z,6.65
2023-02-16T08:09:38.890Z,6.63
2023-02-16T08:12:11.228Z,6.32
2023-02-16T08:14:41.966Z,6.82
2023-02-16T08:17:15.163Z,6.00
2023-02-16T08:19:43.192Z,7.15
2023-02-16T08:22:15.285Z,6.60
2023-02-16T08:24:45.271Z,6.53
2023-02-16T08:27:13.142Z,6.80
2023-02-16T08:29:41.973Z,6.60
2023-02-16T08:32:16.801Z,6.90
2023-02-16T08:34:44.640Z,7.03
2023-02-16T08:37:13.873Z,6.25
2023-02-16T08:39:42.379Z,7.07
2023-02-16T08:42:13.519Z,6.38
2023-02-16T08:44:47.159Z,7.00
2023-02-16T08:47:16.872Z,6.93
2023-02-16T08:49:48.753Z,7.15
2023-02-16T08:52:16.913Z,7.03
2023-02-16T08:54:44.667Z,7.13
2023-02-16T08:57:14.763Z,7.05
2023-02-16T09:00:10.326Z,7.25
2023-02-16T09:02:41.060Z,6.78
2023-02-16T09:05:13.497Z,7.32
2023-02-16T09:07:41.600Z,6.75
2023-02-16T09:10:09.559Z,6.63
2023-02-16T09:12:40.348Z,7.20
2023-02-16T09:15:11.559Z,6.93
2023-02-16T09:17:41.637Z,7.30
2023-02-16T09:20:13.508Z,6.70
2023-02-16T09:22:47.323Z,7.05
2023-02-16T09:25:20.732Z,7.05
2023-02-16T09:27:48.568Z,6.72
2023-02-16T09:30:17.354Z,7.45
2023-02-16T09:32:50.786Z,7.15
2023-02-16T09:35:21.914Z,6.80
2023-02-16T09:37:56.006Z,7.07
2023-02-16T09:40:24.844Z,7.35
2023-02-16T09:43:35.143Z,7.50
2023-02-16T09:46:12.566Z,7.22
2023-02-16T09:48:48.933Z,7.22
2023-02-16T09:51:48.031Z,6.88
2023-02-16T09:54:43.958Z,7.00
2023-02-16T09:57:33.928Z,7.10
2023-02-16T10:00:16.419Z,6.93
2023-02-16T10:02:55.913Z,7.38
2023-02-16T10:05:37.734Z,7.20
2023-02-16T10:08:25.087Z,6.85
2023-02-16T10:11:33.100Z,6.97
2023-02-16T10:14:31.429Z,7.25
2023-02-16T10:17:28.485Z,7.38
2023-02-16T10:19:59.994Z,7.30
2023-02-16T10:22:38.574Z,7.10
2023-02-16T10:25:10.733Z,7.60
2023-02-16T10:27:42.215Z,8.02
2023-02-16T10:30:22.020Z,7.35
2023-02-16T10:33:28.464Z,7.07
2023-02-16T10:36:00.894Z,7.10
2023-02-16T10:38:41.263Z,6.85
2023-02-16T10:41:57.700Z,7.57
2023-02-16T10:44:40.251Z,6.82
2023-02-16T10:47:27.395Z,7.32
2023-02-16T10:50:02.765Z,7.70
2023-02-16T10:52:36.204Z,6.78
2023-02-16T10:57:35.193Z,7.38
2023-02-16T11:00:10.519Z,7.82
2023-02-16T11:02:48.415Z,7.93
2023-02-16T11:05:39.061Z,8.02
2023-02-16T11:08:11.439Z,8.07
2023-02-16T11:10:50.552Z,7.38
2023-02-16T11:13:24.698Z,8.18
2023-02-16T11:15:57.676Z,7.95
2023-02-16T11:18:33.398Z,8.52
2023-02-16T11:21:04.605Z,8.32
2023-02-16T11:23:37.988Z,8.13
2023-02-16T11:26:12.716Z,8.10
2023-02-16T11:28:45.951Z,8.10
2023-02-16T11:31:33.758Z,8.07
2023-02-16T11:34:14.014Z,8.40
2023-02-16T11:36:47.453Z,8.45
2023-02-16T11:42:00.438Z,8.43
2023-02-16T11:44:41.313Z,7.47
2023-02-16T11:47:33.131Z,8.27
2023-02-16T11:50:24.875Z,8.40
2023-02-16T11:52:55.266Z,8.20
2023-02-16T11:55:32.760Z,7.95
2023-02-16T11:58:27.792Z,7.85
2023-02-16T12:01:28.647Z,8.13
2023-02-16T12:04:26.774Z,8.43
2023-02-16T12:07:15.628Z,8.77
2023-02-16T12:10:04.153Z,8.82
2023-02-16T12:13:13.622Z,8.55
2023-02-16T12:16:08.855Z,8.18
2023-02-16T12:18:59.071Z,9.02
2023-02-16T12:21:37.801Z,9.10
2023-02-16T12:24:40.127Z,8.27
2023-02-16T12:27:52.585Z,9.20
2023-02-16T12:30:33.991Z,9.18
2023-02-16T12:33:13.404Z,9.00
2023-02-16T12:36:20.122Z,9.07
2023-02-16T12:39:12.821Z,8.75
2023-02-16T12:42:17.033Z,8.88
2023-02-16T12:44:50.750Z,9.07
2023-02-16T12:47:35.193Z,9.43
2023-02-16T12:50:11.116Z,9.93
2023-02-16T12:52:43.560Z,9.73
2023-02-16T12:55:17.172Z,9.45
2023-02-16T12:58:23.949Z,9.85
2023-02-16T13:01:05.353Z,9.25
2023-02-16T13:03:52.663Z,9.43
2023-02-16T13:06:42.780Z,9.85
2023-02-16T13:09:43.754Z,10.07
2023-02-16T13:12:42.787Z,9.32
2023-02-16T13:15:19.679Z,9.80
2023-02-16T13:18:01.445Z,9.68
2023-02-16T13:20:38.695Z,9.55
2023-02-16T13:23:30.388Z,9.30
2023-02-16T13:26:41.070Z,9.10
2023-02-16T13:29:37.774Z,9.75
2023-02-16T13:32:33.493Z,9.98
2023-02-16T13:35:22.921Z,9.98
2023-02-16T13:38:15.742Z,9.70
2023-02-16T13:41:00.807Z,10.27
2023-02-16T13:43:37.298Z,9.70
2023-02-16T13:46:40.164Z,9.43
2023-02-16T13:49:26.678Z,9.10
2023-02-16T13:52:00.894Z,9.73
2023-02-16T13:54:35.248Z,9.57
2023-02-16T13:57:22.133Z,9.60
2023-02-16T14:02:57.203Z,9.20
2023-02-16T14:05:36.016Z,9.98
2023-02-16T14:08:15.648Z,10.20
2023-02-16T14:10:53.623Z,9.30
2023-02-16T14:13:33.127Z,10.10
2023-02-16T14:16:29.899Z,10.07
2023-02-16T14:19:25.482Z,10.30
2023-02-16T14:21:56.034Z,10.98
2023-02-16T14:24:26.984Z,10.18
2023-02-16T14:27:02.117Z,10.20
2023-02-16T14:29:36.930Z,12.35
2023-02-16T14:32:32.364Z,10.88
2023-02-16T14:35:17.141Z,10.30
2023-02-16T14:37:55.043Z,12.13
2023-02-16T14:40:37.686Z,9.68
2023-02-16T14:43:37.703Z,9.98
2023-02-16T14:46:26.597Z,10.30
2023-02-16T14:49:33.729Z,10.52
2023-02-16T14:52:22.940Z,11.00
2023-02-16T14:55:02.759Z,10.35
2023-02-16T14:57:36.646Z,10.10
2023-02-16T15:00:15.518Z,10.00
2023-02-16T15:03:02.342Z,10.02
2023-02-16T15:05:34.720Z,10.48
2023-02-16T15:08:09.625Z,10.02
2023-02-16T15:10:46.663Z,10.55
2023-02-16T15:13:23.084Z,10.38
2023-02-16T15:15:59.073Z,11.07
2023-02-16T15:18:44.588Z,10.95
2023-02-16T15:21:26.996Z,10.15
2023-02-16T15:24:01.672Z,11.40
2023-02-16T15:26:36.145Z,10.90
2023-02-16T15:29:29.606Z,11.07
2023-02-16T15:32:06.186Z,10.88
2023-02-16T15:34:37.673Z,10.88
2023-02-16T15:37:37.092Z,10.68
2023-02-16T15:40:30.515Z,11.57
2023-02-16T15:43:07.718Z,10.15
2023-02-16T15:45:38.267Z,11.57
2023-02-16T15:48:24.933Z,11.13
2023-02-16T15:51:11.114Z,11.10
2023-02-16T15:54:07.474Z,10.82
2023-02-16T15:56:42.143Z,10.05
2023-02-16T15:59:25.354Z,11.43
2023-02-16T16:02:01.666Z,11.32
2023-02-16T16:04:38.818Z,11.98
2023-02-16T16:07:22.797Z,11.98
2023-02-16T16:09:51.976Z,11.65
2023-02-16T16:12:21.175Z,11.75
2023-02-16T16:14:59.071Z,11.25
2023-02-16T16:17:33.418Z,11.77
2023-02-16T16:20:32.181Z,12.18
2023-02-16T16:23:16.864Z,11.20
2023-02-16T16:25:50.807Z,10.75
2023-02-16T16:28:28.043Z,11.80
2023-02-16T16:31:10.004Z,11.45
2023-02-16T16:33:59.309Z,12.15
2023-02-16T16:36:43.138Z,12.30
2023-02-16T16:39:20.622Z,11.18
2023-02-16T16:42:10.727Z,11.52
2023-02-16T16:44:41.723Z,11.93
2023-02-16T16:47:33.841Z,12.75
2023-02-16T16:50:09.991Z,12.63
2023-02-16T16:52:56.093Z,12.20
2023-02-16T16:55:34.678Z,12.02
2023-02-16T16:58:10.397Z,12.10
2023-02-16T17:00:43.874Z,11.68
2023-02-16T17:05:46.105Z,11.95
2023-02-16T17:08:16.902Z,12.52
2023-02-16T17:10:50.197Z,12.85
2023-02-16T17:13:22.533Z,12.65
2023-02-16T17:16:04.625Z,12.95
2023-02-16T17:18:32.846Z,13.38
2023-02-16T17:21:08.670Z,12.98
2023-02-16T17:23:40.301Z,13.40
2023-02-16T17:26:13.693Z,12.32
2023-02-16T17:28:56.844Z,13.80
2023-02-16T17:31:27.373Z,13.10
2023-02-16T17:34:03.107Z,13.63
2023-02-16T17:36:37.173Z,13.98
2023-02-16T17:39:13.329Z,14.15
2023-02-16T17:41:44.904Z,13.77
2023-02-16T17:44:20.981Z,13.98
2023-02-16T17:46:52.399Z,13.98
2023-02-16T17:49:30.817Z,14.02
2023-02-16T17:51:58.440Z,14.93
2023-02-16T17:54:31.668Z,15.15
2023-02-16T17:57:10.180Z,14.93
2023-02-16T17:59:42.180Z,15.07
2023-02-16T18:02:15.267Z,15.18
2023-02-16T18:04:45.573Z,15.13
2023-02-16T18:07:14.647Z,16.27
2023-02-16T18:09:45.228Z,14.90
2023-02-16T18:12:13.116Z,15.25
2023-02-16T18:14:40.878Z,15.60
2023-02-16T18:17:30.548Z,14.80
2023-02-16T18:19:58.429Z,15.23
2023-02-16T18:22:28.983Z,15.30
2023-02-16T18:24:59.628Z,16.17
2023-02-16T18:27:30.003Z,16.38
2023-02-16T18:29:57.627Z,15.38
2023-02-16T18:32:31.405Z,16.25
2023-02-16T18:34:59.024Z,16.73
2023-02-16T18:37:31.412Z,16.63
2023-02-16T18:39:59.371Z,16.08
2023-02-16T18:42:33.708Z,15.77
2023-02-16T18:47:37.033Z,16.08
2023-02-16T18:50:09.432Z,17.65
2023-02-16T18:52:42.526Z,15.80
2023-02-16T18:55:18.522Z,16.15
2023-02-16T19:00:17.367Z,16.83
2023-02-16T19:02:50.799Z,17.08
2023-02-16T19:05:22.535Z,16.75
2023-02-16T19:07:51.208Z,17.42
2023-02-16T19:10:25.201Z,17.05
2023-02-16T19:12:55.981Z,16.35
2023-02-16T19:15:23.775Z,16.50
2023-02-16T19:17:52.097Z,16.05
2023-02-16T19:20:22.682Z,17.08
2023-02-16T19:22:55.427Z,17.75
2023-02-16T19:25:26.928Z,16.77
2023-02-16T19:27:55.532Z,17.58
2023-02-16T19:30:25.621Z,18.25
2023-02-16T19:32:56.466Z,17.25
2023-02-16T19:35:24.308Z,16.15
2023-02-16T19:37:52.179Z,17.35
2023-02-16T19:40:24.330Z,17.50
2023-02-16T19:43:00.169Z,17.05
2023-02-16T19:45:31.106Z,16.75
2023-02-16T19:47:59.480Z,17.38
2023-02-16T19:50:32.023Z,17.60
2023-02-16T19:52:59.845Z,17.35
2023-02-16T19:55:27.580Z,17.30
2023-02-16T19:57:58.264Z,17.38
2023-02-16T20:00:31.105Z,16.75
2023-02-16T20:02:58.744Z,16.90
2023-02-16T20:05:31.093Z,18.25
2023-02-16T20:08:01.861Z,18.35
2023-02-16T20:10:34.933Z,17.67
2023-02-16T20:13:05.584Z,18.38
2023-02-16T20:15:36.098Z,16.90
2023-02-16T20:18:08.086Z,18.75
2023-02-16T20:20:41.668Z,18.33
2023-02-16T20:23:15.002Z,17.00
2023-02-16T20:25:45.453Z,18.00
2023-02-16T20:28:16.305Z,17.63
2023-02-16T20:30:46.515Z,18.05
2023-02-16T20:33:19.762Z,18.05
2023-02-16T20:35:53.467Z,18.48
2023-02-16T20:40:51.623Z,17.52
2023-02-16T20:43:24.707Z,18.15
2023-02-16T20:46:00.243Z,18.20
2023-02-16T20:48:33.627Z,18.55
2023-02-16T20:51:08.084Z,17.42
2023-02-16T20:54:18.849Z,19.17
2023-02-16T20:56:50.335Z,18.45
2023-02-16T20:59:18.609Z,19.02
2023-02-16T21:01:54.467Z,17.80
2023-02-16T21:04:27.065Z,18.13
2023-02-16T21:07:04.260Z,18.77
2023-02-16T21:09:39.560Z,18.80
2023-02-16T21:12:07.062Z,18.42
2023-02-16T21:14:37.318Z,17.77
2023-02-16T21:17:07.831Z,18.30
2023-02-16T21:19:45.003Z,18.42
2023-02-16T21:22:15.436Z,16.92
2023-02-16T21:24:57.919Z,17.58
2023-02-16T21:27:34.502Z,17.65
2023-02-16T21:30:11.833Z,18.75
2023-02-16T21:32:42.616Z,18.50
2023-02-16T21:35:20.885Z,18.80
2023-02-16T21:37:58.237Z,18.48
2023-02-16T21:40:45.339Z,18.45
2023-02-16T21:43:42.702Z,18.88
2023-02-16T21:46:12.781Z,18.73
2023-02-16T21:48:46.679Z,18.13
2023-02-16T21:51:22.379Z,19.63
2023-02-16T21:53:58.207Z,19.02
2023-02-16T21:56:29.288Z,18.70
2023-02-16T21:58:57.862Z,18.98
2023-02-16T22:01:34.781Z,18.85
2023-02-16T22:04:02.906Z,18.55
2023-02-16T22:06:38.386Z,18.27
2023-02-16T22:09:14.980Z,18.95
2023-02-16T22:11:42.658Z,19.58
2023-02-16T22:14:15.196Z,19.50
2023-02-16T22:16:45.501Z,19.27
2023-02-16T22:19:14.597Z,20.15
2023-02-16T22:21:46.913Z,19.02
2023-02-16T22:24:17.203Z,18.30
2023-02-16T22:26:45.989Z,19.15
2023-02-16T22:29:16.801Z,19.00
2023-02-16T22:31:46.733Z,18.60
2023-02-16T22:34:22.738Z,19.25
2023-02-16T22:36:50.402Z,19.42
2023-02-16T22:39:19.069Z,19.15
2023-02-16T22:41:51.135Z,20.23
2023-02-16T22:44:21.792Z,19.08
2023-02-16T22:46:52.513Z,19.27
2023-02-16T22:49:22.389Z,19.13
2023-02-16T22:51:52.771Z,18.27
2023-02-16T22:54:25.204Z,19.77
2023-02-16T22:56:58.199Z,17.85
2023-02-16T22:59:31.137Z,18.90
2023-02-16T23:02:03.876Z,19.27
2023-02-16T23:04:37.069Z,18.70
2023-02-16T23:07:05.646Z,19.17
2023-02-16T23:09:38.173Z,18.55
2023-02-16T23:12:06.470Z,18.35
2023-02-16T23:14:37.906Z,17.73
2023-02-16T23:17:08.647Z,19.85
2023-02-16T23:19:42.753Z,18.02
2023-02-16T23:22:15.283Z,18.70
2023-02-16T23:25:05.728Z,19.08
2023-02-16T23:27:36.048Z,19.23
2023-02-16T23:30:04.399Z,18.98
2023-02-16T23:32:37.247Z,19.23
2023-02-16T23:35:10.565Z,17.92
2023-02-16T23:37:38.753Z,18.27
2023-02-16T23:40:09.780Z,18.63
2023-02-16T23:42:42.330Z,18.85
2023-02-16T23:45:12.677Z,19.42
2023-02-16T23:47:43.876Z,18.73
2023-02-16T23:50:16.745Z,18.90
2023-02-16T23:52:46.689Z,18.60
2023-02-16T23:55:17.496Z,18.15
2023-02-16T23:57:48.024Z,18.73
